CSUN New Campus Station -PST Time - Most Recent Data on bottom of page




           Date/Time      Avg      Avg      Max     Wind      Avg      Max      Min      Avg      Avg    Total      Avg     Batt
                         Wind     Wind     Wind      Dir     Temp     Temp     Temp       RH      Bar     Rain    Solar     Volt
                      Spd MPH      Dir  Spd MPH   at Max    Deg_F    Deg_F    Deg_F        % Press_mb   Inches     W/m2      Min
--------------------------------------------------------------------------------------------------------------------------------
    02/29/2024 00:00      2.3       73      5.7       37     53.4     53.9     53.0       85     1018     0.00        0     13.4
    02/29/2024 00:15      3.2       88      6.7       96     53.8     54.0     53.6       86     1018     0.00        0     13.4
    02/29/2024 00:30      2.6       95      6.3       88     53.8     54.0     53.6       87     1018     0.00        0     13.4
    02/29/2024 00:45      1.5      109      4.5       96     53.9     54.2     53.7       87     1018     0.00        0     13.4
    02/29/2024 01:00      2.0      117      4.3      116     54.1     54.3     53.8       87     1018     0.00        0     13.4
    02/29/2024 01:15      3.1      110      7.3       93     54.2     54.4     54.0       86     1018     0.00        0     13.4
    02/29/2024 01:30      2.3      116      4.5       69     54.4     54.6     54.2       85     1018     0.00        0     13.4
    02/29/2024 01:45      2.2      164      4.0      160     54.5     54.7     54.2       85     1018     0.00        0     13.4
    02/29/2024 02:00      0.4      176      1.9      164     54.3     54.5     54.1       85     1018     0.00        0     13.4
    02/29/2024 02:15      1.0      171      2.5      171     54.2     54.4     54.1       85     1018     0.00        0     13.4
    02/29/2024 02:30      0.9      183      2.6      176     54.2     54.4     54.0       86     1018     0.00        0     13.4
    02/29/2024 02:45      0.4      131      2.5       98     54.2     54.5     54.0       85     1018     0.00        0     13.4
    02/29/2024 03:00      1.4       87      3.5       88     54.0     54.3     53.8       85     1018     0.00        0     13.4
    02/29/2024 03:15      0.6       66      3.0       56     54.0     54.2     53.7       84     1018     0.00        0     13.4
    02/29/2024 03:30      1.6       92      3.8       95     54.0     54.2     53.8       83     1018     0.00        0     13.4
    02/29/2024 03:45      2.0      106      4.2      106     54.1     54.3     53.9       82     1018     0.00        0     13.4
    02/29/2024 04:00      0.9      143      3.0      121     54.1     54.3     53.9       81     1018     0.00        0     13.4
    02/29/2024 04:15      1.1      100      2.5      103     54.1     54.3     53.9       80     1018     0.00        0     13.4
    02/29/2024 04:30      0.9       99      2.5      122     54.2     54.4     54.1       80     1018     0.00        0     13.4
    02/29/2024 04:45      0.3       98      2.7       96     54.3     54.6     54.1       80     1018     0.00        0     13.4
    02/29/2024 05:00      0.9      102      2.3      108     54.3     54.6     54.1       79     1018     0.00        0     13.4
    02/29/2024 05:15      1.0      110      2.1       99     54.4     54.6     54.2       79     1018     0.00        0     13.4
    02/29/2024 05:30      0.8      103      2.0      109     54.5     54.6     54.3       79     1019     0.00        0     13.4
    02/29/2024 05:45      0.6       94      1.7      116     54.5     54.7     54.3       79     1019     0.00        0     13.4
    02/29/2024 06:00      0.0        0      0.0       86     54.6     54.8     54.3       79     1019     0.00        0     13.4
    02/29/2024 06:15      0.4      170      1.9      176     54.7     54.9     54.5       80     1019     0.00        0     13.4
    02/29/2024 06:30      0.0      108      2.0      116     54.7     54.9     54.5       80     1019     0.00        1     13.4
    02/29/2024 06:45      1.2      112      3.8      102     54.7     54.9     54.6       80     1019     0.00        5     13.4
    02/29/2024 07:00      1.8      139      3.7      104     54.8     55.0     54.6       80     1020     0.00        9     13.3
    02/29/2024 07:15      2.2      139      3.9      116     54.9     55.0     54.7       80     1020     0.00       17     13.3
    02/29/2024 07:30      1.6      139      3.4      138     55.0     55.2     54.7       80     1020     0.00       35     13.3
    02/29/2024 07:45      1.7      149      4.2      166     55.3     55.6     55.0       79     1020     0.00       52     13.3
    02/29/2024 08:00      2.2      157      3.9      176     55.6     55.9     55.2       79     1020     0.00       63     13.3
    02/29/2024 08:15      2.9      152      5.7      122     56.0     56.1     55.6       78     1020     0.00       76     13.3
    02/29/2024 08:30      3.0      127      5.7       99     56.2     56.6     55.9       76     1020     0.00       94     13.3
    02/29/2024 08:45      2.8      128      5.0      105     56.6     57.1     56.1       74     1020     0.00      137     13.3
    02/29/2024 09:00      3.4      134      6.4       98     57.0     57.6     56.6       74     1020     0.00      147     13.3
    02/29/2024 09:15      3.7      145      6.7      168     57.6     57.9     57.3       71     1020     0.00      162     13.3
    02/29/2024 09:30      2.9      143      7.5       94     57.9     58.7     57.4       71     1021     0.00      183     13.3
    02/29/2024 09:45      4.2      132      8.0      105     58.8     59.4     58.2       67     1021     0.00      254     13.3
    02/29/2024 10:00      4.3      140      8.1      125     58.6     59.0     58.2       68     1021     0.00      202     13.2
    02/29/2024 10:15      4.8      122      9.3      122     58.3     58.8     58.0       68     1021     0.00      209     13.2
    02/29/2024 10:30      5.6      148     10.1      162     58.6     58.9     58.3       67     1021     0.00      177     13.2
    02/29/2024 10:45      5.6      155      9.9      139     58.6     58.9     58.3       68     1021     0.00      184     13.2
    02/29/2024 11:00      4.7      155      9.8      157     59.1     59.6     58.8       66     1021     0.00      216     13.2
    02/29/2024 11:15      4.6      142      8.2      157     59.9     60.5     59.2       64     1021     0.00      282     13.2
    02/29/2024 11:30      4.9      142      9.9      167     60.4     60.9     59.5       63     1021     0.00      294     13.2
    02/29/2024 11:45      6.3      172      9.9      159     60.9     61.5     60.5       64     1021     0.00      296     13.2
    02/29/2024 12:00      5.2      159      9.9      163     62.0     62.8     61.3       59     1021     0.00      537     13.2
    02/29/2024 12:15      5.3      160      9.3      112     62.4     63.1     61.4       58     1021     0.00      357     13.2
    02/29/2024 12:30      5.0      158      9.1      138     61.2     62.3     60.4       59     1020     0.00      166     13.2
    02/29/2024 12:45      4.4      148      9.7      155     60.6     60.9     60.4       61     1020     0.00      120     13.2
    02/29/2024 13:00      3.6      164      7.3      162     60.8     61.1     60.5       60     1020     0.00      120     13.2
    02/29/2024 13:15      6.6      170     12.8      147     60.7     61.1     60.5       59     1020     0.00      160     13.2
    02/29/2024 13:30      7.8      170     14.7      174     63.0     64.7     60.8       56     1020     0.00      503     13.2
    02/29/2024 13:45      7.8      167     13.0      179     63.8     64.8     62.6       53     1020     0.00      513     13.2
    02/29/2024 14:00      6.8      162     11.4      177     63.2     64.8     62.5       56     1020     0.00      294     13.2
    02/29/2024 14:15      5.2      151     11.3      139     62.3     63.2     61.6       56     1019     0.00      232     13.2
    02/29/2024 14:30      4.7      156      8.9      159     61.9     62.5     61.4       56     1019     0.00      242     13.2
    02/29/2024 14:45      4.8      144      9.3      100     62.0     62.8     61.4       56     1019     0.00      133     13.2
    02/29/2024 15:00      5.8      147     10.3      149     60.9     61.6     60.4       57     1019     0.00       96     13.2
    02/29/2024 15:15      4.4      151     10.8      139     60.7     60.9     60.5       56     1019     0.00      102     13.2
    02/29/2024 15:30      5.3      144      9.8      174     60.5     60.9     60.2       56     1019     0.00      120     13.2
    02/29/2024 15:45      6.4      159     15.7      153     60.7     61.1     60.3       57     1019     0.00      115     13.2
    02/29/2024 16:00      6.2      154     12.8      153     60.1     60.6     59.6       57     1019     0.00      109     13.2
    02/29/2024 16:15      6.7      156     12.3      167     59.5     59.9     59.1       56     1019     0.00       85     13.2
    02/29/2024 16:30      6.2      168     11.1      181     58.8     59.1     58.6       57     1019     0.00       59     13.3
    02/29/2024 16:45      5.9      177     10.0      176     58.6     58.8     58.4       57     1019     0.00       52     13.3
    02/29/2024 17:00      7.0      180     11.1      164     58.5     58.9     58.1       57     1019     0.00       45     13.3
    02/29/2024 17:15      5.6      179      9.7      164     58.0     58.2     57.7       60     1019     0.00       38     13.3
    02/29/2024 17:30      4.6      178      8.6      168     57.6     57.9     57.1       60     1019     0.00       19     13.3
    02/29/2024 17:45      5.3      190      8.6      192     57.0     57.4     56.7       60     1019     0.00        7     13.3
    02/29/2024 18:00      5.1      185      7.8      190     56.8     57.0     56.6       60     1019     0.00        2     13.3
    02/29/2024 18:15      4.9      183      8.3      189     56.5     56.8     56.3       60     1019     0.00        0     13.3
    02/29/2024 18:30      4.1      171      7.0      162     56.3     56.5     56.1       60     1019     0.00        0     13.3
    02/29/2024 18:45      3.1      177      7.4      187     56.2     56.4     56.0       62     1019     0.00        0     13.3
    02/29/2024 19:00      2.4      216      5.2      254     56.1     56.3     55.8       61     1019     0.00        0     13.3
    02/29/2024 19:15      3.0      219      6.7      189     56.0     56.1     55.8       60     1019     0.00        0     13.3
    02/29/2024 19:30      2.7      217      6.4      184     55.9     56.0     55.7       60     1019     0.00        0     13.3
    02/29/2024 19:45      2.9      209      6.7      188     55.6     55.9     55.4       61     1019     0.00        0     13.3
    02/29/2024 20:00      2.2      239      4.9      198     55.3     55.5     54.9       67     1019     0.00        0     13.3
    02/29/2024 20:15      1.8      267      4.5      239     54.6     55.2     54.2       69     1019     0.00        0     13.3
    02/29/2024 20:30      1.7      274      4.0      250     54.0     54.4     53.6       70     1020     0.00        0     13.3
    02/29/2024 20:45      1.8      258      4.1      248     53.6     53.9     53.3       71     1020     0.00        0     13.4
    02/29/2024 21:00      1.8      268      4.8      282     53.5     53.6     53.3       72     1020     0.00        0     13.4
    02/29/2024 21:15      1.7      266      4.9      253     53.4     53.6     53.2       72     1020     0.00        0     13.4
    02/29/2024 21:30      1.6      261      3.6      252     53.4     53.5     53.2       72     1020     0.00        0     13.4
    02/29/2024 21:45      0.3      254      1.6      243     53.4     53.6     53.2       73     1020     0.00        0     13.4
    02/29/2024 22:00      2.4      202      5.7      162     53.4     53.6     53.2       72     1020     0.00        0     13.4
    02/29/2024 22:15      4.5      185      7.6      183     53.3     53.5     53.0       72     1020     0.00        0     13.4
    02/29/2024 22:30      3.9      185      6.2      199     53.1     53.3     52.9       72     1020     0.00        0     13.4
    02/29/2024 22:45      3.0      186      5.2      179     53.0     53.2     52.7       73     1020     0.00        0     13.4
    02/29/2024 23:00      1.1      202      3.4      185     52.7     53.0     52.4       73     1020     0.00        0     13.4
    02/29/2024 23:15      1.5      196      2.5      180     52.2     52.5     51.9       74     1020     0.00        0     13.4
    02/29/2024 23:30      1.3      169      2.9      171     51.9     52.1     51.7       75     1020     0.00        0     13.4
    02/29/2024 23:45      0.5      152      2.2      159     52.0     52.2     51.8       75     1020     0.00        0     13.4
    03/01/2024 00:00      1.3      179      3.3      157     51.6     52.0     51.3       75     1020     0.00        0     13.4
    03/01/2024 00:15      2.6      155      3.9      157     51.4     51.7     51.2       76     1020     0.00        0     13.4
    03/01/2024 00:30      2.0      157      3.6      160     51.7     52.0     51.5       76     1020     0.00        0     13.4
    03/01/2024 00:45      1.6      144      3.3      161     52.0     52.3     51.8       75     1020     0.00        0     13.4
    03/01/2024 01:00      1.5      176      3.2      166     52.1     52.4     52.0       76     1020     0.00        0     13.4
    03/01/2024 01:15      1.5      243      4.4      252     52.1     52.3     51.8       76     1020     0.00        0     13.4
    03/01/2024 01:30      2.4      263      4.9      238     51.8     52.2     51.6       76     1020     0.00        0     13.4
    03/01/2024 01:45      1.8      271      4.2      255     51.6     51.8     51.3       76     1020     0.00        0     13.4
    03/01/2024 02:00      1.9      280      4.3      294     51.5     51.6     51.3       77     1020     0.00        0     13.4
    03/01/2024 02:15      1.2      256      3.5      297     51.4     51.6     51.3       77     1020     0.00        0     13.4
    03/01/2024 02:30      0.4      185      2.0      155     51.4     51.6     51.2       76     1020     0.00        0     13.4
    03/01/2024 02:45      1.6      179      3.6      181     51.5     51.7     51.2       77     1019     0.00        0     13.4
    03/01/2024 03:00      2.2      159      4.0      112     51.6     51.8     51.3       76     1019     0.00        0     13.4
    03/01/2024 03:15      2.0      114      4.1      117     51.7     51.9     51.5       76     1019     0.00        0     13.4
    03/01/2024 03:30      2.5      102      5.0      106     51.7     51.9     51.5       77     1019     0.00        0     13.4
    03/01/2024 03:45      1.4       91      4.3      114     51.6     51.8     51.5       77     1019     0.00        0     13.4
    03/01/2024 04:00      1.1       82      4.3       84     51.6     51.8     51.3       77     1019     0.00        0     13.4
    03/01/2024 04:15      0.7      182      3.0      166     51.4     51.6     51.1       77     1019     0.00        0     13.4
    03/01/2024 04:30      0.1      181      1.4      177     51.1     51.3     50.7       77     1019     0.00        0     13.4
    03/01/2024 04:45      1.2      162      2.7      154     50.8     51.0     50.6       77     1019     0.00        0     13.4
    03/01/2024 05:00      0.0        0      0.0      177     50.8     51.0     50.6       76     1019     0.00        0     13.4
    03/01/2024 05:15      0.0        0      0.0      197     50.9     51.1     50.6       76     1019     0.00        0     13.4
    03/01/2024 05:30      0.4       91      2.7      113     51.1     51.4     50.8       76     1019     0.00        0     13.4
    03/01/2024 05:45      0.8       99      2.4       86     51.5     51.7     51.3       75     1019     0.00        0     13.4
    03/01/2024 06:00      1.2      135      2.8      136     51.7     51.9     51.5       76     1020     0.00        0     13.4
    03/01/2024 06:15      1.8      139      4.3      150     51.8     52.0     51.6       77     1020     0.00        0     13.4
    03/01/2024 06:30      1.3      141      3.5      125     51.7     52.0     51.5       77     1020     0.00        2     13.4
    03/01/2024 06:45      1.5      155      3.5      147     51.6     51.8     51.4       77     1019     0.00        7     13.4
    03/01/2024 07:00      1.5      121      3.5      108     51.6     51.9     51.3       76     1019     0.00       12     13.4
    03/01/2024 07:15      0.0        0      0.0      117     51.6     51.9     51.3       76     1020     0.00       26     13.4
    03/01/2024 07:30      0.1      219      1.0      241     51.9     52.2     51.7       76     1020     0.00       40     13.4
    03/01/2024 07:45      1.5      145      3.0      144     52.3     52.7     52.0       74     1020     0.00       53     13.4
    03/01/2024 08:00      2.4      169      4.3      166     53.0     53.4     52.5       74     1020     0.00       74     13.4
    03/01/2024 08:15      2.1      148      4.7      151     53.2     53.5     52.9       74     1020     0.00       79     13.4
    03/01/2024 08:30      2.8      140      6.4      189     53.5     53.9     53.2       73     1020     0.00      126     13.3
    03/01/2024 08:45      3.6      152      6.1      154     54.1     54.6     53.4       73     1020     0.00      124     13.3
    03/01/2024 09:00      2.8      115      6.7      127     54.7     55.5     54.2       69     1020     0.00      174     13.3
    03/01/2024 09:15      4.7      131      7.6      102     55.6     56.2     55.1       67     1020     0.00      198     13.3
    03/01/2024 09:30      3.0      110      8.9      110     55.5     55.8     55.2       67     1020     0.00      106     13.3
    03/01/2024 09:45      3.8      120      7.1      152     55.3     55.6     55.1       66     1020     0.00      106     13.3
    03/01/2024 10:00      4.1      120      8.1      151     55.8     56.1     55.3       66     1020     0.00      116     13.3
    03/01/2024 10:15      3.6      147      7.1      140     56.0     56.2     55.7       66     1020     0.00       85     13.3
    03/01/2024 10:30      4.2      147      8.2      158     55.8     56.0     55.5       68     1020     0.00       76     13.3
    03/01/2024 10:45      6.0      154     11.0      132     55.1     55.9     54.7       68     1020     0.00       73     13.3
    03/01/2024 11:00      3.4      151      7.4       91     55.2     56.0     54.6       68     1020     0.00      114     13.3
    03/01/2024 11:15      5.2      145     10.1      164     56.5     57.0     55.8       64     1020     0.00      152     13.3
    03/01/2024 11:30      5.9      155     10.7      160     56.7     57.0     56.5       67     1020     0.00      122     13.3
    03/01/2024 11:45      5.7      141     11.5      178     56.7     56.9     56.4       66     1020     0.00      161     13.3
    03/01/2024 12:00      3.3      130      6.4      150     56.7     57.9     56.2       65     1019     0.00      220     13.3
    03/01/2024 12:15      5.1      137     10.3       98     58.8     59.7     57.8       59     1019     0.00      283     13.3
    03/01/2024 12:30      4.2      126      7.6      118     57.9     58.6     57.5       62     1019     0.00       77     13.3
    03/01/2024 12:45      4.8      163      9.8      178     58.9     60.4     57.5       57     1019     0.00      272     13.3
    03/01/2024 13:00      5.6      157     10.4      169     59.9     60.3     59.5       59     1019     0.00      235     13.2
    03/01/2024 13:15      5.4      157     10.2      120     59.5     59.9     59.2       57     1018     0.00      177     13.2
    03/01/2024 13:30      7.2      176     12.7      181     60.7     61.8     59.4       55     1018     0.00      343     13.2
    03/01/2024 13:45      4.9      158      8.7      111     59.9     60.9     59.1       58     1018     0.00      116     13.2
    03/01/2024 14:00      6.0      157     11.0      169     58.9     59.4     58.6       59     1018     0.00       81     13.2
    03/01/2024 14:15      7.3      170     14.3      167     59.0     59.5     58.6       59     1018     0.00      184     13.3
    03/01/2024 14:30      8.0      167     14.8      163     59.3     59.8     58.8       57     1018     0.00      143     13.3
    03/01/2024 14:45      7.0      167     13.0      173     58.8     59.3     58.5       59     1017     0.00      163     13.3
    03/01/2024 15:00      8.2      164     15.2      156     59.2     59.5     58.9       59     1017     0.00      238     13.2
    03/01/2024 15:15      8.1      174     15.2      161     59.3     59.8     58.6       59     1017     0.00      177     13.2
    03/01/2024 15:30      8.0      175     13.9      177     58.5     58.9     58.1       60     1017     0.00      142     13.2
    03/01/2024 15:45      8.0      178     13.7      160     58.0     58.3     57.6       61     1017     0.00       96     13.3
    03/01/2024 16:00      7.9      167     13.8      179     57.5     57.7     57.2       61     1017     0.00       79     13.3
    03/01/2024 16:15      7.9      171     13.6      176     57.4     57.6     57.1       63     1017     0.00      119     13.3
    03/01/2024 16:30      7.4      181     12.6      182     57.2     57.6     56.9       65     1017     0.00       87     13.3
    03/01/2024 16:45      7.1      180     13.1      178     56.9     57.3     56.5       65     1017     0.00       55     13.3
    03/01/2024 17:00      5.6      170     10.8      159     56.7     56.9     56.4       65     1017     0.00       49     13.3
    03/01/2024 17:15      5.8      168      9.6      174     56.2     56.5     55.9       67     1017     0.00       16     13.3
    03/01/2024 17:30      5.9      151      9.7      152     55.9     56.1     55.6       69     1017     0.00        7     13.3
    03/01/2024 17:45      6.9      148     11.7      142     55.3     55.8     54.6       74     1017     0.00        3     13.3
    03/01/2024 18:00      4.8      157      9.1      149     54.4     55.0     53.9       79     1017     0.00        2     13.3
    03/01/2024 18:15      4.9      151      8.4      119     53.8     54.2     53.5       82     1017     0.01        0     13.3
    03/01/2024 18:30      2.8      139      6.1      160     53.6     53.8     53.3       84     1017     0.00        0     13.4
    03/01/2024 18:45      3.7      147      7.1      127     53.5     53.7     53.3       85     1017     0.00        0     13.4
    03/01/2024 19:00      4.6      141      9.2      144     53.5     53.6     53.2       85     1017     0.00        1     13.4
    03/01/2024 19:15      3.4      137      7.1      128     53.4     53.6     53.1       86     1017     0.00        1     13.4
    03/01/2024 19:30      3.4      142      6.8      141     53.3     53.5     53.0       87     1017     0.00        1     13.4
    03/01/2024 19:45      4.6      151     10.9      172     53.4     53.5     53.2       87     1017     0.00        0     13.4
    03/01/2024 20:00      5.2      161     10.7      185     53.4     53.6     53.2       87     1017     0.00        0     13.4
    03/01/2024 20:15      5.7      160     10.1      182     53.5     53.6     53.2       85     1017     0.00        0     13.4
    03/01/2024 20:30      4.3      160      8.9      147     53.6     53.8     53.4       85     1017     0.00        0     13.4
    03/01/2024 20:45      4.1      163      7.0      177     53.6     53.8     53.3       85     1017     0.01        0     13.4
    03/01/2024 21:00      3.4      149      8.2      142     53.5     53.8     53.2       86     1017     0.01        0     13.4
    03/01/2024 21:15      3.2      156      7.5      140     53.4     53.6     53.2       87     1017     0.00        0     13.4
    03/01/2024 21:30      4.0      167      9.1      183     53.4     53.6     53.2       87     1017     0.01        0     13.4
    03/01/2024 21:45      4.5      158      8.3      158     53.3     53.5     53.0       87     1017     0.03        0     13.4
    03/01/2024 22:00      2.9      154      6.4      172     53.2     53.3     53.0       87     1017     0.03        0     13.4
    03/01/2024 22:15      2.4      158      4.5      163     53.2     53.3     53.0       88     1017     0.04        0     13.4
    03/01/2024 22:30      2.6      179      4.5      149     53.1     53.3     52.9       88     1017     0.07        0     13.4
    03/01/2024 22:45      3.8      173      6.5      174     53.2     53.4     52.9       88     1017     0.03        0     13.4
    03/01/2024 23:00      4.6      171      7.5      193     53.0     53.2     52.7       89     1017     0.03        0     13.4
    03/01/2024 23:15      3.9      169      7.7      197     52.9     53.1     52.7       89     1017     0.00        0     13.4
    03/01/2024 23:30      4.2      182      7.5      179     52.9     53.0     52.7       89     1017     0.00        0     13.4
    03/01/2024 23:45      5.9      189     11.6      199     52.6     53.0     52.4       89     1017     0.00        0     13.4
    03/02/2024 00:00      4.1      191      7.5      181     52.5     52.7     52.4       89     1016     0.00        0     13.4
    03/02/2024 00:15      4.6      197      9.6      199     52.5     52.7     52.2       89     1017     0.00        0     13.4
    03/02/2024 00:30      4.7      184      7.4      193     52.3     52.5     52.0       89     1016     0.00        0     13.4
    03/02/2024 00:45      3.6      186      5.8      196     52.1     52.3     52.0       90     1016     0.00        0     13.4
    03/02/2024 01:00      3.8      181      6.1      184     52.1     52.3     52.0       90     1016     0.00        0     13.4
    03/02/2024 01:15      3.5      172      6.0      177     52.0     52.3     51.7       90     1016     0.00        0     13.4
    03/02/2024 01:30      2.6      165      4.5      164     51.6     52.0     51.3       90     1016     0.00        0     13.4
    03/02/2024 01:45      2.3      186      5.0      177     51.3     51.5     51.0       90     1016     0.00        0     13.4
    03/02/2024 02:00      2.9      190      6.5      204     51.3     51.5     51.0       90     1016     0.00        0     13.4
    03/02/2024 02:15      2.3      199      4.8      170     51.3     51.5     51.1       90     1015     0.00        0     13.4
    03/02/2024 02:30      2.0      179      4.9      202     51.3     51.5     51.0       90     1015     0.00        0     13.4
    03/02/2024 02:45      2.9      163      5.7      160     51.0     51.4     50.7       90     1015     0.00        0     13.4
    03/02/2024 03:00      2.2      149      3.9      151     50.9     51.0     50.7       90     1015     0.01        0     13.4
    03/02/2024 03:15      1.3      133      2.8      114     50.7     51.0     50.5       90     1015     0.00        0     13.4
    03/02/2024 03:30      1.5       93      3.0       86     50.4     50.7     50.1       90     1015     0.00        0     13.4
    03/02/2024 03:45      1.1       90      3.7      115     50.1     50.3     49.9       90     1014     0.00        0     13.4
    03/02/2024 04:00      1.3      130      3.3      177     50.1     50.3     50.0       90     1014     0.00        0     13.4
    03/02/2024 04:15      2.3      173      5.0      150     50.2     50.4     50.0       90     1014     0.01        0     13.4
    03/02/2024 04:30      2.7      182      8.2      150     50.3     50.4     50.1       90     1014     0.01        0     13.4
    03/02/2024 04:45      3.6      153      6.2      174     50.2     50.4     49.9       90     1014     0.01        0     13.4
    03/02/2024 05:00      2.2      133      4.9      159     50.1     50.2     49.9       90     1014     0.00        0     13.4
    03/02/2024 05:15      2.0      114      4.0      103     50.2     50.3     50.0       90     1014     0.00        0     13.4
    03/02/2024 05:30      2.2      113      4.5      124     50.2     50.4     50.0       90     1014     0.00        0     13.4
    03/02/2024 05:45      3.1      113      5.3      113     50.0     50.2     49.6       90     1014     0.00        0     13.4
    03/02/2024 06:00      2.6      120      5.1      144     49.6     49.9     49.5       90     1014     0.00        0     13.4
    03/02/2024 06:15      2.8      106      5.3      114     49.5     49.7     49.3       90     1014     0.01        0     13.4
    03/02/2024 06:30      3.6      104      6.7      113     49.4     49.6     49.1       91     1014     0.00        2     13.4
    03/02/2024 06:45      2.9      104      4.8       91     49.6     49.8     49.3       91     1014     0.00        7     13.4
    03/02/2024 07:00      3.4      135      6.7      111     49.7     49.9     49.5       91     1014     0.00       13     13.4
    03/02/2024 07:15      3.6      139      6.6      135     49.8     50.0     49.6       91     1014     0.00       29     13.4
    03/02/2024 07:30      4.6      154      8.0      142     49.8     50.0     49.6       90     1014     0.00       28     13.4
    03/02/2024 07:45      3.8      168      6.0      159     49.9     50.1     49.7       90     1015     0.02       28     13.4
    03/02/2024 08:00      3.4      193      6.9      193     50.0     50.4     49.7       91     1015     0.00       34     13.4
    03/02/2024 08:15      3.7      151      7.6      161     50.3     50.7     50.0       91     1015     0.00       82     13.4
    03/02/2024 08:30      5.2      155      9.7      152     50.7     51.0     50.4       90     1015     0.00       97     13.4
    03/02/2024 08:45      5.2      167     11.0      171     50.9     51.1     50.6       90     1015     0.02       78     13.4
    03/02/2024 09:00      6.4      178     12.7      168     51.0     51.4     50.8       90     1015     0.03      104     13.4
    03/02/2024 09:15      5.9      236     13.5      243     50.8     51.6     50.0       90     1015     0.01      113     13.4
    03/02/2024 09:30      3.9      232      9.5      244     50.5     51.0     50.1       90     1015     0.00      131     13.4
    03/02/2024 09:45      4.1      213      8.4      176     51.2     51.9     50.7       90     1015     0.00      190     13.3
    03/02/2024 10:00      6.1      202     12.6      177     52.2     52.8     51.6       90     1015     0.00      350     13.3
    03/02/2024 10:15      4.5      180      9.2      183     53.1     53.5     52.5       89     1015     0.00      297     13.3
    03/02/2024 10:30      5.3      174     11.8      142     53.8     54.3     53.3       88     1015     0.00      257     13.3
    03/02/2024 10:45      9.5      172     19.0      164     53.7     54.3     53.4       86     1015     0.00      240     13.3
    03/02/2024 11:00     11.2      184     18.2      178     54.6     55.3     53.9       82     1015     0.00      253     13.3
    03/02/2024 11:15      8.4      183     16.3      169     55.9     57.1     55.2       79     1015     0.00      339     13.3
    03/02/2024 11:30     10.5      174     18.2      159     57.3     57.8     56.7       76     1015     0.00      387     13.2
    03/02/2024 11:45      9.8      184     19.4      182     57.9     58.3     57.7       71     1015     0.00      349     13.2
    03/02/2024 12:00     10.5      191     19.7      197     58.9     59.4     58.3       67     1015     0.00      406     13.2
    03/02/2024 12:15      8.6      202     21.1      195     58.0     58.8     56.9       76     1014     0.00      206     13.2
    03/02/2024 12:30      6.3      230     18.3      250     55.5     57.0     54.2       81     1015     0.04      167     13.3
    03/02/2024 12:45      6.4      239     18.4      268     53.8     54.5     53.2       85     1015     0.00      244     13.3
    03/02/2024 13:00      5.6      218     12.1      194     54.8     55.1     54.3       83     1015     0.00      347     13.3
    03/02/2024 13:15      5.8      208     13.7      162     55.9     57.1     54.8       77     1014     0.00      439     13.3
    03/02/2024 13:30      5.6      204     10.7      176     57.6     58.1     56.8       72     1014     0.00      318     13.3
    03/02/2024 13:45      6.5      246     13.7      263     57.6     58.3     57.3       70     1014     0.00      320     13.3
    03/02/2024 14:00      7.2      202     24.2      186     59.3     60.6     57.9       64     1014     0.00      548     13.2
    03/02/2024 14:15      7.6      197     18.2      206     60.6     61.5     60.0       60     1014     0.00      541     13.2
    03/02/2024 14:30      8.0      252     18.3      299     58.6     62.1     54.1       78     1014     0.03      112     13.2
    03/02/2024 14:45      4.5      244     10.6      236     54.1     55.2     53.4       84     1014     0.05      230     13.2
    03/02/2024 15:00      5.4      232     12.3      261     55.0     55.3     54.8       81     1014     0.00      256     13.3
    03/02/2024 15:15      5.2      237     13.9      251     55.4     55.9     55.0       76     1014     0.00      249     13.3
    03/02/2024 15:30      5.0      233     10.7      247     56.1     56.8     55.5       71     1014     0.00      243     13.3
    03/02/2024 15:45      4.9      229     12.5      247     56.3     56.7     55.9       70     1014     0.00      152     13.3
    03/02/2024 16:00      5.3      230     12.0      217     55.7     56.1     55.4       68     1014     0.00      117     13.3
    03/02/2024 16:15      4.9      217     11.8      192     55.5     55.8     55.3       65     1014     0.00      122     13.3
    03/02/2024 16:30      4.9      235     10.9      252     55.3     55.7     55.0       63     1015     0.00       83     13.3
    03/02/2024 16:45      4.8      205     10.0      170     55.3     55.6     55.0       64     1015     0.00       67     13.3
    03/02/2024 17:00      4.4      217     13.0      209     55.4     55.6     55.1       61     1015     0.00       46     13.3
    03/02/2024 17:15      5.8      208     11.7      223     55.2     55.4     55.0       62     1015     0.00       30     13.3
    03/02/2024 17:30      5.1      226     15.0      257     54.9     55.2     54.7       63     1015     0.00       24     13.3
    03/02/2024 17:45      5.0      170      9.2      194     54.6     55.0     54.1       67     1015     0.00        9     13.3
    03/02/2024 18:00      4.4      161      7.7      174     54.1     54.3     53.9       68     1015     0.00        2     13.3
    03/02/2024 18:15      4.3      150      7.7      162     53.9     54.1     53.6       70     1015     0.00        0     13.3
    03/02/2024 18:30      3.7      141      6.2      120     53.6     53.8     53.3       71     1015     0.00        0     13.4
    03/02/2024 18:45      4.1      149      8.2      154     53.4     53.6     53.2       72     1015     0.00        0     13.4
    03/02/2024 19:00      4.4      173      6.9      161     53.3     53.5     53.0       72     1015     0.00        0     13.4
    03/02/2024 19:15      4.4      175      8.2      180     53.0     53.2     52.8       71     1015     0.00        0     13.4
    03/02/2024 19:30      3.5      187      6.8      165     52.7     53.0     52.4       70     1015     0.00        0     13.4
    03/02/2024 19:45      2.6      200      6.1      181     52.7     52.9     52.5       69     1015     0.00        0     13.4
    03/02/2024 20:00      2.2      201      5.6      170     52.5     52.9     52.1       68     1015     0.00        0     13.4
    03/02/2024 20:15      4.5      177      8.2      182     51.7     52.4     51.2       71     1016     0.00        0     13.4
    03/02/2024 20:30      1.9      197      4.6      185     51.0     51.3     50.8       73     1016     0.00        0     13.4
    03/02/2024 20:45      2.8      193      5.6      191     51.1     51.4     50.9       74     1016     0.00        0     13.4
    03/02/2024 21:00      2.3      201      4.3      199     51.4     51.7     51.2       75     1016     0.00        0     13.4
    03/02/2024 21:15      1.4      211      4.6      187     51.5     51.7     51.2       76     1016     0.00        0     13.4
    03/02/2024 21:30      1.1      150      2.3      106     50.9     51.3     50.5       77     1016     0.00        0     13.4
    03/02/2024 21:45      1.5      150      2.9      168     50.4     50.8     50.3       79     1016     0.00        0     13.4
    03/02/2024 22:00      2.3      154      4.8      168     50.6     50.9     50.3       81     1016     0.00        0     13.4
    03/02/2024 22:15      2.8      169      5.0      158     50.8     51.1     50.7       82     1016     0.00        0     13.4
    03/02/2024 22:30      2.3      194      3.5      195     50.9     51.1     50.7       83     1016     0.00        0     13.4
    03/02/2024 22:45      0.9      226      3.6      249     50.8     51.0     50.5       83     1016     0.00        0     13.4
    03/02/2024 23:00      1.7      226      4.7      255     50.5     50.8     50.3       83     1016     0.00        0     13.4
    03/02/2024 23:15      1.4      256      4.6      247     50.3     50.5     50.1       83     1016     0.00        0     13.4
    03/02/2024 23:30      0.7      220      3.7      198     50.1     50.5     49.9       83     1016     0.00        0     13.4
    03/02/2024 23:45      2.6      182      5.1      184     49.5     50.1     49.0       83     1016     0.00        0     13.4
    03/03/2024 00:00      0.5      172      3.9      168     49.1     49.5     48.8       84     1016     0.00        0     13.4
    03/03/2024 00:15      1.2      185      4.6      200     49.5     49.7     49.2       83     1016     0.00        0     13.4
    03/03/2024 00:30      0.5      215      4.7      183     49.6     49.9     49.4       83     1016     0.00        0     13.4
    03/03/2024 00:45      2.6      189      4.5      213     49.4     49.7     49.1       84     1016     0.01        0     13.4
    03/03/2024 01:00      1.4      270      4.7      302     49.1     49.4     48.9       85     1016     0.00        0     13.4
    03/03/2024 01:15      0.7      323      2.5       44     49.0     49.2     48.8       86     1016     0.01        0     13.4
    03/03/2024 01:30      0.4       98      2.5      107     48.9     49.2     48.7       86     1016     0.00        0     13.4
    03/03/2024 01:45      1.7       79      3.4       45     48.6     48.9     48.4       87     1016     0.00        0     13.4
    03/03/2024 02:00      2.0       62      4.3       57     48.7     48.9     48.5       87     1016     0.00        0     13.4
    03/03/2024 02:15      1.1       51      3.2       38     48.6     48.8     48.5       87     1016     0.00        0     13.4
    03/03/2024 02:30      1.6       53      4.0       41     48.4     48.6     48.2       87     1016     0.00        0     13.4
    03/03/2024 02:45      1.0       85      3.5       45     48.1     48.4     47.8       87     1016     0.00        0     13.4
    03/03/2024 03:00      0.5       61      2.1       77     47.8     48.0     47.5       87     1016     0.00        0     13.5
    03/03/2024 03:15      0.5      122      1.7      136     47.5     47.7     47.3       88     1015     0.00        0     13.5
    03/03/2024 03:30      1.2       39      3.5      108     47.3     47.6     47.1       88     1015     0.00        0     13.5
    03/03/2024 03:45      1.6       49      4.3       57     47.4     47.6     47.3       88     1015     0.00        0     13.5
    03/03/2024 04:00      1.2       67      3.9       53     47.5     47.6     47.3       88     1015     0.00        0     13.5
    03/03/2024 04:15      1.2      199      3.9       51     47.5     47.7     47.4       88     1015     0.00        0     13.5
    03/03/2024 04:30      2.1      128      4.6      163     47.6     47.9     47.4       88     1015     0.00        0     13.5
    03/03/2024 04:45      2.0      116      3.8      106     47.7     47.9     47.5       89     1015     0.01        0     13.4
    03/03/2024 05:00      2.0      103      3.9      133     47.7     47.9     47.5       89     1015     0.01        0     13.4
    03/03/2024 05:15      1.9       82      4.6       98     47.6     47.9     47.3       89     1015     0.02        0     13.4
    03/03/2024 05:30      1.6       48      4.5       96     47.5     47.7     47.3       89     1015     0.02        0     13.4
    03/03/2024 05:45      1.4       23      5.0       33     47.4     47.5     47.1       89     1016     0.02        0     13.4
    03/03/2024 06:00      2.4       60      4.6       54     47.1     47.4     46.9       89     1016     0.01        0     13.4
    03/03/2024 06:15      1.6       73      3.6       57     47.2     47.5     47.0       89     1016     0.01        0     13.4
    03/03/2024 06:30      1.7       76      4.2       70     47.3     47.5     47.1       89     1016     0.01        1     13.4
    03/03/2024 06:45      1.4       83      3.9       80     47.4     47.7     47.2       90     1016     0.00        3     13.4
    03/03/2024 07:00      3.0       93      6.0      105     47.6     47.9     47.3       90     1016     0.00       11     13.4
    03/03/2024 07:15      4.2      106      6.8      104     47.7     47.8     47.5       90     1016     0.00       22     13.4
    03/03/2024 07:30      2.8      109      5.6       84     47.9     48.1     47.6       90     1016     0.00       50     13.4
    03/03/2024 07:45      3.8      107      6.8      112     48.0     48.3     47.7       90     1016     0.00       84     13.4
    03/03/2024 08:00      3.7      113      6.1      114     48.0     48.3     47.7       90     1016     0.00       72     13.4
    03/03/2024 08:15      3.6      115      6.0      103     48.3     48.6     47.9       90     1017     0.00      107     13.4
    03/03/2024 08:30      3.3      126      5.9      167     48.5     49.1     48.1       90     1017     0.00      164     13.4
    03/03/2024 08:45      3.7      125      6.7      103     49.5     50.1     48.8       90     1017     0.00      292     13.4
    03/03/2024 09:00      3.4      116      6.0      121     50.0     50.4     49.7       90     1017     0.00      225     13.3
    03/03/2024 09:15      2.5      126      6.9      110     49.9     50.5     49.3       90     1017     0.00      197     13.3
    03/03/2024 09:30      3.1      134      5.7      143     50.7     51.1     50.2       89     1017     0.00      193     13.3
    03/03/2024 09:45      3.1      138      6.3      101     51.5     52.6     50.2       89     1017     0.00      397     13.3
    03/03/2024 10:00      3.8      140      6.9       95     52.1     53.0     51.3       88     1017     0.00      333     13.3
    03/03/2024 10:15      4.7      150     10.0      145     54.0     55.0     52.8       86     1017     0.00      570     13.2
    03/03/2024 10:30      7.0      179     12.1      179     55.5     56.1     55.0       80     1017     0.00      537     13.2
    03/03/2024 10:45      4.8      199     10.8      256     56.7     57.8     56.0       70     1017     0.00      516     13.2
    03/03/2024 11:00      4.2      228     15.3      251     58.7     59.3     57.6       60     1017     0.00      558     13.2
    03/03/2024 11:15      3.9      222     11.3      252     59.2     59.9     58.5       58     1017     0.00      404     13.2
    03/03/2024 11:30      5.6      234     13.6      247     58.1     59.0     57.6       58     1016     0.00      214     13.2
    03/03/2024 11:45      4.8      230     14.0      258     60.1     61.4     58.4       50     1016     0.00      631     13.2
    03/03/2024 12:00      5.9      221     15.9      263     61.3     61.7     60.8       51     1016     0.00      562     13.2
    03/03/2024 12:15      5.8      215     15.0      189     62.1     62.8     61.1       45     1016     0.00      637     13.2
    03/03/2024 12:30      5.8      229     13.8      255     60.9     62.3     60.1       50     1016     0.00      403     13.2
    03/03/2024 12:45      6.9      206     15.3      194     61.8     62.7     60.5       44     1015     0.00      591     13.2
    03/03/2024 13:00      7.4      231     14.4      272     62.0     63.0     60.9       44     1015     0.00      661     13.2
    03/03/2024 13:15      6.3      248     13.1      256     61.1     61.9     59.7       47     1015     0.00      509     13.2
    03/03/2024 13:30      6.4      247     14.6      262     58.2     59.8     57.4       52     1015     0.00      179     13.2
    03/03/2024 13:45      5.7      245     14.9      274     58.6     59.3     58.2       49     1015     0.00      302     13.2
    03/03/2024 14:00      5.5      243     12.6      254     59.0     59.5     58.4       52     1015     0.00      343     13.2
    03/03/2024 14:15      5.5      211     12.1      180     59.6     60.3     58.8       52     1015     0.00      248     13.2
    03/03/2024 14:30      5.3      213     11.4      183     58.8     59.0     58.6       52     1015     0.00      230     13.2
    03/03/2024 14:45      4.5      221      9.1      241     59.3     59.7     58.8       53     1014     0.00      237     13.2
    03/03/2024 15:00      5.7      246     12.8      256     58.6     59.0     58.2       53     1014     0.00      204     13.2
    03/03/2024 15:15      6.0      245     14.0      243     58.5     59.5     58.0       56     1014     0.00      258     13.2
    03/03/2024 15:30      5.3      220     12.3      252     59.2     59.9     58.6       53     1014     0.00      274     13.2
    03/03/2024 15:45      4.6      222     12.1      247     59.5     60.3     58.6       53     1014     0.00      218     13.2
    03/03/2024 16:00      4.7      249     13.2      257     57.7     58.8     57.1       55     1014     0.00      130     13.2
    03/03/2024 16:15      5.1      237     11.4      287     57.5     57.8     57.1       57     1014     0.00      113     13.2
    03/03/2024 16:30      5.6      242     16.7      243     57.1     57.7     56.4       57     1014     0.00       74     13.2
    03/03/2024 16:45      5.2      234     13.6      255     56.2     56.6     55.7       58     1014     0.00       53     13.3
    03/03/2024 17:00      5.5      236     14.8      274     55.8     56.0     55.6       59     1014     0.00       52     13.3
    03/03/2024 17:15      5.1      234     13.2      246     55.9     56.1     55.7       59     1015     0.00       61     13.3
    03/03/2024 17:30      4.5      249     11.0      256     55.4     55.9     54.9       60     1015     0.00       32     13.3
    03/03/2024 17:45      3.6      256      8.6      242     55.0     55.3     54.8       61     1015     0.00       21     13.3
    03/03/2024 18:00      3.4      246      8.1      255     54.6     55.1     54.2       63     1015     0.00        5     13.3
    03/03/2024 18:15      3.3      236      9.1      255     54.1     54.4     53.6       63     1015     0.00        0     13.3
    03/03/2024 18:30      3.0      226      6.1      239     53.6     54.0     53.2       65     1015     0.00        0     13.3
    03/03/2024 18:45      3.0      221      8.2      279     53.1     53.5     52.8       66     1015     0.00        0     13.4
    03/03/2024 19:00      2.8      199      7.5      188     52.7     52.9     52.4       67     1015     0.00        0     13.4
    03/03/2024 19:15      1.6      234      4.2      265     52.5     52.7     52.1       68     1015     0.00        0     13.4
    03/03/2024 19:30      1.2      168      4.3      259     52.0     52.5     51.7       69     1015     0.00        0     13.4
    03/03/2024 19:45      0.0        0      0.0      107     51.8     52.1     51.4       70     1015     0.00        0     13.4
    03/03/2024 20:00      1.1       96      3.6       88     51.0     51.5     50.6       72     1016     0.00        0     13.4
    03/03/2024 20:15      0.5      167      2.2      109     50.6     50.8     50.2       74     1016     0.00        0     13.4
    03/03/2024 20:30      0.6       30      2.1       59     50.3     50.5     50.0       74     1016     0.00        0     13.4
    03/03/2024 20:45      0.7       77      2.8       82     49.8     50.2     49.5       76     1016     0.00        0     13.4
    03/03/2024 21:00      0.0        0      0.0       61     49.4     50.0     48.9       76     1016     0.00        0     13.4
    03/03/2024 21:15      0.0        0      0.0        0     48.6     49.0     48.2       78     1016     0.00        0     13.5
    03/03/2024 21:30      0.0        0      0.0      232     48.3     48.5     48.0       80     1016     0.00        0     13.5
    03/03/2024 21:45      0.0        0      0.0      303     47.9     48.3     47.6       81     1016     0.00        0     13.5
    03/03/2024 22:00      0.5      309      1.4      298     47.5     47.7     47.3       82     1016     0.00        0     13.5
    03/03/2024 22:15      0.0        0      0.0      298     47.3     47.5     47.1       82     1016     0.00        0     13.5
    03/03/2024 22:30      0.4      215      2.1      203     46.8     47.3     46.4       83     1016     0.00        0     13.5
    03/03/2024 22:45      0.5      304      1.6      289     46.5     46.8     46.1       84     1016     0.00        0     13.5
    03/03/2024 23:00      0.6      255      2.3      251     46.2     46.5     45.7       84     1016     0.00        0     13.5
    03/03/2024 23:15      0.0      220      0.7      220     45.7     45.9     45.4       85     1017     0.00        0     13.5
    03/03/2024 23:30      0.0        0      0.0      335     46.0     46.2     45.7       85     1017     0.00        0     13.5
    03/03/2024 23:45      1.2       23      3.4       23     46.0     46.4     45.7       85     1017     0.00        0     13.5
    03/04/2024 00:00      0.4       98      1.6       94     46.0     46.4     45.6       85     1017     0.00        0     13.5
    03/04/2024 00:15      0.0        0      0.0      132     45.5     45.7     45.0       85     1017     0.00        0     13.5
    03/04/2024 00:30      0.0        0      0.0       82     44.8     45.2     44.5       86     1017     0.00        0     13.5
    03/04/2024 00:45      0.0      192      1.1      193     44.6     44.9     44.3       86     1017     0.00        0     13.5
    03/04/2024 01:00      0.0        0      0.0      193     44.4     44.6     44.2       86     1017     0.00        0     13.5
    03/04/2024 01:15      0.0        0      0.0      193     44.4     44.7     44.2       87     1017     0.00        0     13.5
    03/04/2024 01:30      0.0        0      0.0      337     44.2     44.5     44.0       87     1017     0.00        0     13.5
    03/04/2024 01:45      0.0        0      0.0      341     44.0     44.4     43.6       87     1017     0.00        0     13.5
    03/04/2024 02:00      0.0       29      1.1       26     43.5     43.9     43.0       87     1017     0.00        0     13.5
    03/04/2024 02:15      1.2       40      3.2       26     43.5     44.3     43.0       88     1016     0.00        0     13.5
    03/04/2024 02:30      1.4       37      2.8       28     44.3     44.6     43.9       87     1016     0.00        0     13.6
    03/04/2024 02:45      1.2       17      2.2        8     44.0     44.2     43.8       87     1016     0.00        0     13.6
    03/04/2024 03:00      1.6       25      2.8       10     44.0     44.2     43.7       88     1016     0.00        0     13.6
    03/04/2024 03:15      0.4       10      2.2      353     43.6     44.2     42.9       87     1016     0.00        0     13.6
    03/04/2024 03:30      0.2      212      1.3      218     42.7     43.1     42.2       87     1016     0.00        0     13.6
    03/04/2024 03:45      0.6      297      2.3      298     42.2     42.6     41.9       88     1016     0.00        0     13.6
    03/04/2024 04:00      0.0        0      0.0      297     42.0     42.5     41.6       88     1016     0.00        0     13.6
    03/04/2024 04:15      0.0        0      0.0      294     41.8     42.2     41.5       88     1016     0.00        0     13.6
    03/04/2024 04:30      0.1      287      1.6      288     41.4     41.8     41.2       88     1016     0.00        0     13.6
    03/04/2024 04:45      0.4      325      1.5      326     41.5     41.8     41.2       89     1017     0.00        0     13.6
    03/04/2024 05:00      0.1      345      1.0      332     41.5     42.0     41.2       88     1017     0.00        0     13.6
    03/04/2024 05:15      0.1      156      1.1      166     41.3     41.7     40.9       88     1017     0.00        0     13.6
    03/04/2024 05:30      0.0        0      1.4        7     40.9     41.2     40.7       89     1017     0.00        0     13.6
    03/04/2024 05:45      0.2      121      1.7       12     40.6     41.1     40.2       89     1017     0.00        0     13.6
    03/04/2024 06:00      0.9      336      2.1      343     40.6     41.3     40.2       89     1017     0.00        0     13.6
    03/04/2024 06:15      0.2      350      1.4      349     41.0     41.4     40.6       89     1017     0.00        1     13.6
    03/04/2024 06:30      0.2       17      1.8       12     40.6     41.0     40.4       89     1017     0.00        5     13.6
    03/04/2024 06:45      1.4       14      2.2       12     41.5     42.2     40.7       90     1017     0.00       13     13.6
    03/04/2024 07:00      0.6       10      2.1      353     42.6     43.0     42.2       90     1017     0.00       20     13.6
    03/04/2024 07:15      0.0      159      1.2      160     43.0     43.9     42.6       90     1017     0.00       63     13.6
    03/04/2024 07:30      1.7      163      3.3      153     44.7     45.9     43.8       90     1018     0.00      132     13.5
    03/04/2024 07:45      0.9      165      2.5      167     46.5     47.3     45.6       89     1018     0.00      168     13.5
    03/04/2024 08:00      0.8      155      4.4      172     48.3     49.6     47.0       88     1018     0.00      206     13.4
    03/04/2024 08:15      2.0      165      4.6      180     50.7     52.1     49.4       85     1018     0.00      244     13.4
    03/04/2024 08:30      3.0      201      6.0      199     52.4     52.9     51.9       76     1019     0.00      283     13.3
    03/04/2024 08:45      2.5      211      5.3      191     53.2     53.9     52.6       71     1019     0.00      320     13.3
    03/04/2024 09:00      2.0      161      4.4      189     54.7     55.6     53.3       68     1019     0.00      368     13.3
    03/04/2024 09:15      2.9      159      5.0      149     56.4     56.9     55.6       63     1019     0.00      413     13.3
    03/04/2024 09:30      2.0      116      5.0      111     56.9     57.4     56.5       58     1019     0.00      447     13.2
    03/04/2024 09:45      2.5       99      4.9       50     57.2     57.7     56.8       55     1019     0.00      477     13.2
    03/04/2024 10:00      3.1      358      7.2      324     58.5     59.0     57.5       42     1019     0.00      515     13.2
    03/04/2024 10:15      4.5       59      9.2       62     58.6     59.3     58.2       41     1019     0.00      550     13.2
    03/04/2024 10:30      2.9       43      8.9       54     59.1     60.3     58.7       41     1018     0.00      574     13.2
    03/04/2024 10:45      2.8       28      9.2       10     60.0     60.7     59.5       45     1018     0.00      588     13.2
    03/04/2024 11:00      2.6      139      6.9      150     60.7     61.8     59.9       46     1018     0.00      524     13.1
    03/04/2024 11:15      2.7      111      7.0      112     60.4     61.1     59.7       44     1018     0.00      640     13.1
    03/04/2024 11:30      4.0       89      8.2      103     61.3     62.1     60.4       43     1018     0.00      630     13.1
    03/04/2024 11:45      3.1      110      9.7       85     61.2     61.8     60.7       42     1018     0.00      635     13.1
    03/04/2024 12:00      3.2      123      7.2      154     61.7     62.9     61.0       41     1018     0.00      639     13.1
    03/04/2024 12:15      4.0      184      8.1      162     62.5     63.3     62.0       44     1018     0.00      643     13.1
    03/04/2024 12:30      3.3      174      7.6      164     63.3     64.1     62.4       36     1018     0.00      646     13.1
    03/04/2024 12:45      3.9      124      9.7      102     63.0     63.9     61.8       40     1018     0.00      528     13.1
    03/04/2024 13:00      3.5      110      9.1       77     60.7     61.8     60.1       45     1017     0.00      298     13.1
    03/04/2024 13:15      4.1      103      9.7      111     62.6     63.3     61.1       42     1017     0.00      643     13.2
    03/04/2024 13:30      3.6       61      8.9       97     62.8     63.9     61.2       44     1017     0.00      427     13.1
    03/04/2024 13:45      3.9      119      8.2      138     61.6     62.0     60.8       45     1017     0.00      182     13.2
    03/04/2024 14:00      4.8      157      9.5      102     62.0     63.2     60.5       42     1017     0.00      390     13.2
    03/04/2024 14:15      4.5      108     10.0      118     62.0     63.1     61.1       43     1016     0.00      182     13.2
    03/04/2024 14:30      4.6      151      8.4      157     61.1     61.5     60.8       46     1016     0.00      151     13.2
    03/04/2024 14:45      2.0      152      5.4      174     62.2     63.6     61.4       41     1016     0.00      384     13.2
    03/04/2024 15:00      4.8      152     11.5      169     64.0     64.5     63.5       44     1016     0.00      416     13.2
    03/04/2024 15:15      6.0      179     10.5      190     63.7     64.8     62.4       48     1016     0.00      272     13.1
    03/04/2024 15:30      5.5      168      8.7      190     62.0     62.6     61.5       50     1016     0.00      147     13.1
    03/04/2024 15:45      5.6      160      9.2      162     61.0     61.8     60.1       49     1016     0.00       86     13.2
    03/04/2024 16:00      4.6      159      8.4      152     60.0     60.3     59.8       51     1016     0.00       58     13.2
    03/04/2024 16:15      3.1      196      6.6      160     60.2     60.4     60.0       52     1016     0.00       55     13.2
    03/04/2024 16:30      2.6      207      5.4      164     60.1     60.5     59.8       54     1016     0.00       49     13.2
    03/04/2024 16:45      3.5      148      8.6      133     59.6     60.1     59.0       53     1016     0.00       44     13.2
    03/04/2024 17:00      3.7      169      8.0      160     58.9     59.2     58.6       56     1016     0.00       27     13.3
    03/04/2024 17:15      4.7      151      8.6      167     58.5     58.9     58.2       56     1017     0.00       18     13.3
    03/04/2024 17:30      4.6      172      8.1      135     58.3     58.5     58.1       56     1017     0.00       21     13.3
    03/04/2024 17:45      2.9      167      5.3      147     58.1     58.5     57.9       56     1017     0.00       16     13.3
    03/04/2024 18:00      0.3      184      3.1      199     57.5     58.0     56.8       57     1017     0.00        3     13.3
    03/04/2024 18:15      1.7      241      4.6      259     56.2     56.9     55.5       57     1017     0.00        0     13.3
    03/04/2024 18:30      2.0      251      7.1      260     55.3     55.7     54.8       59     1017     0.00        0     13.3
    03/04/2024 18:45      1.9      245      5.5      261     54.8     55.1     54.6       60     1017     0.00        0     13.3
    03/04/2024 19:00      0.8      247      3.0      247     54.2     54.9     53.5       63     1017     0.00        0     13.4
    03/04/2024 19:15      1.9      249      4.0      252     53.2     53.6     52.9       64     1017     0.00        0     13.4
    03/04/2024 19:30      1.9      251      5.3      236     53.1     53.3     52.9       65     1017     0.00        0     13.4
    03/04/2024 19:45      1.7      259      3.8      242     53.0     53.3     52.9       66     1017     0.00        0     13.4
    03/04/2024 20:00      2.7      256      6.4      236     52.8     53.1     52.5       67     1017     0.00        0     13.4
    03/04/2024 20:15      2.1      259      5.5      242     52.4     52.8     52.1       67     1017     0.00        0     13.4
    03/04/2024 20:30      1.3      261      2.8      245     52.1     52.4     51.7       67     1017     0.00        0     13.4
    03/04/2024 20:45      0.4      248      4.9      260     51.5     51.9     51.0       69     1017     0.00        0     13.4
    03/04/2024 21:00      1.4      256      3.6      251     51.0     51.3     50.8       70     1017     0.00        0     13.4
    03/04/2024 21:15      1.5      248      3.6      245     50.7     51.2     50.2       72     1017     0.00        0     13.4
    03/04/2024 21:30      1.0      273      3.0      258     50.1     50.4     49.9       74     1017     0.00        0     13.4
    03/04/2024 21:45      1.4      295      2.6      280     49.8     50.1     49.5       75     1017     0.00        0     13.4
    03/04/2024 22:00      0.2      295      2.2      302     49.3     49.7     48.9       75     1017     0.00        0     13.5
    03/04/2024 22:15      0.2      309      1.4      306     48.7     49.0     48.5       77     1017     0.00        0     13.5
    03/04/2024 22:30      1.2      296      2.7      302     48.4     48.6     48.0       77     1017     0.00        0     13.5
    03/04/2024 22:45      0.0        0      0.0      302     48.0     48.2     47.7       79     1017     0.00        0     13.5
    03/04/2024 23:00      0.0        0      0.0      302     48.0     48.3     47.7       80     1017     0.00        0     13.5
    03/04/2024 23:15      0.0        0      0.0      305     47.9     48.1     47.5       79     1017     0.00        0     13.5